createdAt,value
2022-10-11T00:00:09.143Z,369
2022-10-11T00:01:07.898Z,372
2022-10-11T00:02:08.051Z,371
2022-10-11T00:03:08.204Z,366
2022-10-11T00:04:08.143Z,371
2022-10-11T00:05:08.102Z,369
2022-10-11T00:08:08.470Z,373
2022-10-11T00:09:07.789Z,369
2022-10-11T00:10:07.686Z,366
2022-10-11T00:11:07.465Z,377
2022-10-11T00:12:07.354Z,372
2022-10-11T00:14:08.063Z,370
2022-10-11T00:15:07.856Z,386
2022-10-11T00:16:08.094Z,379
2022-10-11T00:17:08.521Z,370
2022-10-11T00:19:08.360Z,377
2022-10-11T00:20:08.295Z,379
2022-10-11T00:21:07.997Z,368
2022-10-11T00:22:07.917Z,357
2022-10-11T00:23:08.050Z,369
2022-10-11T00:24:07.876Z,384
2022-10-11T00:25:07.567Z,383
2022-10-11T00:26:07.639Z,378
2022-10-11T00:27:07.649Z,388
2022-10-11T00:28:07.351Z,376
2022-10-11T00:29:08.271Z,368
2022-10-11T00:30:08.597Z,372
2022-10-11T00:31:07.827Z,382
2022-10-11T00:32:08.070Z,384
2022-10-11T00:33:07.547Z,375
2022-10-11T00:34:07.404Z,372
2022-10-11T00:35:07.080Z,370
2022-10-11T00:36:08.808Z,380
2022-10-11T00:37:07.944Z,377
2022-10-11T00:38:07.547Z,378
2022-10-11T00:39:07.216Z,382
2022-10-11T00:41:07.493Z,385
2022-10-11T00:42:08.207Z,379
2022-10-11T00:43:07.993Z,374
2022-10-11T00:44:07.954Z,380
2022-10-11T00:45:12.751Z,379
2022-10-11T00:46:08.202Z,382
2022-10-11T00:47:08.149Z,374
2022-10-11T00:48:07.518Z,382
2022-10-11T00:49:07.303Z,381
2022-10-11T00:50:08.146Z,382
2022-10-11T00:51:07.723Z,376
2022-10-11T00:52:07.234Z,371
2022-10-11T00:53:08.143Z,381
2022-10-11T00:54:07.881Z,375
2022-10-11T00:55:07.564Z,370
2022-10-11T00:56:07.758Z,372
2022-10-11T00:57:07.888Z,373
2022-10-11T00:59:15.699Z,378
2022-10-11T01:00:07.738Z,380
2022-10-11T01:01:07.573Z,396
2022-10-11T01:02:07.390Z,374
2022-10-11T01:03:08.369Z,365
2022-10-11T01:04:08.293Z,372
2022-10-11T01:05:28.143Z,377
2022-10-11T01:06:07.982Z,385
2022-10-11T01:07:08.033Z,383
2022-10-11T01:08:07.500Z,396
2022-10-11T01:09:07.201Z,390
2022-10-11T01:10:08.198Z,378
2022-10-11T01:11:08.096Z,370
2022-10-11T01:12:07.787Z,379
2022-10-11T01:13:07.550Z,376
2022-10-11T01:14:07.200Z,378
2022-10-11T01:15:07.953Z,379
2022-10-11T01:16:08.289Z,376
2022-10-11T01:17:08.095Z,373
2022-10-11T01:18:07.962Z,379
2022-10-11T01:19:07.949Z,377
2022-10-11T01:20:07.732Z,373
2022-10-11T01:21:07.467Z,371
2022-10-11T01:22:08.364Z,380
2022-10-11T01:23:08.457Z,371
2022-10-11T01:24:08.740Z,362
2022-10-11T01:25:08.018Z,368
2022-10-11T01:26:08.394Z,367
2022-10-11T01:27:07.264Z,378
2022-10-11T01:28:07.704Z,390
2022-10-11T01:29:07.518Z,393
2022-10-11T01:30:08.441Z,387
2022-10-11T01:31:07.243Z,380
2022-10-11T01:32:07.877Z,372
2022-10-11T01:33:07.680Z,385
2022-10-11T01:34:07.303Z,383
2022-10-11T01:35:08.027Z,385
2022-10-11T01:36:08.355Z,384
2022-10-11T01:37:07.320Z,378
2022-10-11T01:38:07.989Z,380
2022-10-11T01:39:07.463Z,385
2022-10-11T01:40:08.427Z,380
2022-10-11T01:41:07.357Z,381
2022-10-11T01:42:07.948Z,391
2022-10-11T01:43:07.522Z,385
2022-10-11T01:44:08.258Z,371
2022-10-11T01:45:08.209Z,380
2022-10-11T01:46:08.463Z,385
2022-10-11T01:47:07.459Z,388
2022-10-11T01:49:08.117Z,383
2022-10-11T01:50:07.905Z,375
2022-10-11T01:51:07.340Z,378
2022-10-11T01:52:07.847Z,382
2022-10-11T01:53:07.669Z,388
2022-10-11T01:54:07.329Z,382
2022-10-11T01:55:09.944Z,380
2022-10-11T01:57:08.152Z,382
2022-10-11T01:58:07.752Z,381
2022-10-11T01:59:07.236Z,382
2022-10-11T02:01:07.342Z,374
2022-10-11T02:03:07.592Z,370
2022-10-11T02:04:07.336Z,405
2022-10-11T02:05:08.416Z,393
2022-10-11T02:06:08.788Z,378
2022-10-11T02:07:07.704Z,390
2022-10-11T02:09:08.277Z,382
2022-10-11T02:10:08.388Z,367
2022-10-11T02:11:07.371Z,372
2022-10-11T02:12:07.072Z,374
2022-10-11T02:13:08.160Z,376
2022-10-11T02:15:07.795Z,379
2022-10-11T02:16:08.670Z,373
2022-10-11T02:17:07.995Z,375
2022-10-11T02:18:07.730Z,378
2022-10-11T02:19:07.355Z,381
2022-10-11T02:20:08.296Z,383
2022-10-11T02:21:07.972Z,378
2022-10-11T02:22:07.644Z,372
2022-10-11T02:23:07.452Z,379
2022-10-11T02:24:07.394Z,376
2022-10-11T02:25:07.232Z,379
2022-10-11T02:26:08.367Z,386
2022-10-11T02:27:07.501Z,387
2022-10-11T02:28:08.369Z,400
2022-10-11T02:29:08.448Z,401
2022-10-11T02:30:07.484Z,395
2022-10-11T02:31:07.547Z,383
2022-10-11T02:32:07.224Z,379
2022-10-11T02:33:07.924Z,373
2022-10-11T02:34:07.793Z,371
2022-10-11T02:35:07.699Z,376
2022-10-11T02:36:08.201Z,385
2022-10-11T02:37:07.694Z,392
2022-10-11T02:38:07.678Z,386
2022-10-11T02:39:07.471Z,384
2022-10-11T02:40:07.445Z,370
2022-10-11T02:41:08.325Z,381
2022-10-11T02:42:08.209Z,392
2022-10-11T02:43:08.251Z,382
2022-10-11T02:44:08.363Z,388
2022-10-11T02:45:08.662Z,383
2022-10-11T02:46:08.332Z,379
2022-10-11T02:47:07.434Z,389
2022-10-11T02:48:08.354Z,361
2022-10-11T02:49:07.303Z,378
2022-10-11T02:50:08.294Z,384
2022-10-11T02:51:08.431Z,382
2022-10-11T02:52:07.206Z,391
2022-10-11T02:53:08.276Z,392
2022-10-11T02:54:08.249Z,391
2022-10-11T02:56:07.946Z,392
2022-10-11T02:57:08.130Z,389
2022-10-11T02:58:08.266Z,393
2022-10-11T02:59:08.385Z,396
2022-10-11T03:01:07.629Z,398
2022-10-11T03:02:07.735Z,388
2022-10-11T03:03:07.452Z,390
2022-10-11T03:04:07.266Z,394
2022-10-11T03:05:08.572Z,388
2022-10-11T03:06:07.776Z,402
2022-10-11T03:07:07.785Z,405
2022-10-11T03:08:07.332Z,390
2022-10-11T03:09:08.097Z,392
2022-10-11T03:10:08.022Z,393
2022-10-11T03:11:08.378Z,400
2022-10-11T03:13:07.514Z,396
2022-10-11T03:14:08.150Z,391
2022-10-11T03:15:07.976Z,383
2022-10-11T03:16:08.211Z,389
2022-10-11T03:17:30.849Z,395
2022-10-11T03:18:07.670Z,408
2022-10-11T03:19:07.645Z,413
2022-10-11T03:20:08.330Z,408
2022-10-11T03:21:08.134Z,400
2022-10-11T03:22:07.947Z,407
2022-10-11T03:23:07.519Z,405
2022-10-11T03:24:07.253Z,407
2022-10-11T03:25:08.065Z,401
2022-10-11T03:26:08.653Z,398
2022-10-11T03:27:07.860Z,400
2022-10-11T03:28:07.877Z,396
2022-10-11T03:29:07.795Z,393
2022-10-11T03:30:07.795Z,394
2022-10-11T03:32:08.322Z,404
2022-10-11T03:33:08.499Z,406
2022-10-11T03:34:07.631Z,402
2022-10-11T03:35:07.366Z,396
2022-10-11T03:36:08.720Z,399
2022-10-11T03:37:07.605Z,392
2022-10-11T03:38:10.105Z,390
2022-10-11T03:39:07.908Z,398
2022-10-11T03:40:07.800Z,399
2022-10-11T03:41:07.854Z,391
2022-10-11T03:42:07.615Z,394
2022-10-11T03:43:07.161Z,382
2022-10-11T03:44:08.342Z,385
2022-10-11T03:45:08.479Z,390
2022-10-11T03:46:08.183Z,392
2022-10-11T03:47:07.632Z,397
2022-10-11T03:48:07.498Z,401
2022-10-11T03:49:07.135Z,398
2022-10-11T03:51:07.712Z,388
2022-10-11T03:52:08.254Z,395
2022-10-11T03:53:08.306Z,404
2022-10-11T03:55:07.630Z,401
2022-10-11T03:56:08.614Z,407
2022-10-11T03:57:07.981Z,404
2022-10-11T03:58:07.772Z,406
2022-10-11T03:59:07.952Z,408
2022-10-11T04:00:08.632Z,411
2022-10-11T04:01:08.574Z,422
2022-10-11T04:02:07.978Z,409
2022-10-11T04:03:07.875Z,398
2022-10-11T04:05:08.044Z,403
2022-10-11T04:06:08.705Z,407
2022-10-11T04:08:11.912Z,410
2022-10-11T04:09:08.243Z,403
2022-10-11T04:10:08.587Z,416
2022-10-11T04:12:07.681Z,398
2022-10-11T04:13:07.456Z,440
2022-10-11T04:14:07.631Z,425
2022-10-11T04:15:07.840Z,407
2022-10-11T04:16:08.242Z,412
2022-10-11T04:17:07.778Z,417
2022-10-11T04:18:07.796Z,415
2022-10-11T04:19:07.750Z,414
2022-10-11T04:20:07.805Z,418
2022-10-11T04:21:07.693Z,408
2022-10-11T04:22:07.641Z,411
2022-10-11T04:23:07.523Z,409
2022-10-11T04:24:07.562Z,416
2022-10-11T04:25:07.868Z,421
2022-10-11T04:26:08.452Z,420
2022-10-11T04:27:07.734Z,416
2022-10-11T04:28:07.927Z,412
2022-10-11T04:29:08.183Z,413
2022-10-11T04:30:09.065Z,409
2022-10-11T04:31:08.519Z,415
2022-10-11T04:32:07.650Z,411
2022-10-11T04:34:07.979Z,430
2022-10-11T04:35:07.828Z,408
2022-10-11T04:36:08.088Z,412
2022-10-11T04:37:07.864Z,405
2022-10-11T04:38:07.919Z,410
2022-10-11T04:39:08.247Z,408
2022-10-11T04:40:08.487Z,417
2022-10-11T04:41:07.459Z,418
2022-10-11T04:42:08.440Z,428
2022-10-11T04:43:07.798Z,427
2022-10-11T04:44:07.987Z,418
2022-10-11T04:45:08.194Z,401
2022-10-11T04:46:08.937Z,404
2022-10-11T04:47:08.510Z,405
2022-10-11T04:48:07.689Z,411
2022-10-11T04:49:07.503Z,412
2022-10-11T04:50:07.788Z,413
2022-10-11T04:51:07.838Z,407
2022-10-11T04:52:07.865Z,409
2022-10-11T04:53:07.506Z,402
2022-10-11T04:54:07.223Z,414
2022-10-11T04:55:08.175Z,417
2022-10-11T04:57:07.755Z,410
2022-10-11T04:58:07.881Z,421
2022-10-11T04:59:07.930Z,415
2022-10-11T05:00:08.415Z,405
2022-10-11T05:01:07.444Z,411
2022-10-11T05:03:07.970Z,417
2022-10-11T05:04:08.111Z,421
2022-10-11T05:05:08.500Z,416
2022-10-11T05:06:07.894Z,432
2022-10-11T05:07:07.674Z,443
2022-10-11T05:08:07.411Z,438
2022-10-11T05:09:07.818Z,427
2022-10-11T05:10:07.772Z,426
2022-10-11T05:11:07.751Z,433
2022-10-11T05:12:07.574Z,442
2022-10-11T05:13:07.662Z,441
2022-10-11T05:15:08.061Z,431
2022-10-11T05:16:10.777Z,417
2022-10-11T05:17:08.542Z,409
2022-10-11T05:18:07.574Z,450
2022-10-11T05:19:07.540Z,460
2022-10-11T05:20:07.684Z,420
2022-10-11T05:21:07.679Z,408
2022-10-11T05:22:07.407Z,418
2022-10-11T05:23:07.425Z,423
2022-10-11T05:24:08.629Z,407
2022-10-11T05:25:07.947Z,412
2022-10-11T05:26:08.430Z,421
2022-10-11T05:27:07.904Z,414
2022-10-11T05:28:07.772Z,420
2022-10-11T05:29:07.787Z,427
2022-10-11T05:30:08.046Z,429
2022-10-11T05:31:08.228Z,436
2022-10-11T05:32:07.516Z,438
2022-10-11T05:33:07.608Z,430
2022-10-11T05:34:07.646Z,413
2022-10-11T05:35:07.767Z,414
2022-10-11T05:36:07.971Z,423
2022-10-11T05:37:08.200Z,417
2022-10-11T05:38:08.146Z,420
2022-10-11T05:39:08.284Z,422
2022-10-11T05:40:07.855Z,419
2022-10-11T05:41:07.916Z,413
2022-10-11T05:42:09.994Z,421
2022-10-11T05:43:07.338Z,428
2022-10-11T05:44:07.307Z,432
2022-10-11T05:45:13.626Z,429
2022-10-11T05:46:08.059Z,423
2022-10-11T05:47:13.086Z,430
2022-10-11T05:48:07.713Z,435
2022-10-11T05:49:07.591Z,432
2022-10-11T05:50:07.484Z,441
2022-10-11T05:51:07.232Z,436
2022-10-11T05:52:08.270Z,433
2022-10-11T05:53:07.569Z,431
2022-10-11T05:54:07.769Z,439
2022-10-11T05:55:07.956Z,420
2022-10-11T05:56:08.589Z,430
2022-10-11T05:57:07.912Z,422
2022-10-11T05:58:07.832Z,418
2022-10-11T05:59:07.833Z,416
2022-10-11T06:00:08.444Z,423
2022-10-11T06:01:08.201Z,429
2022-10-11T06:02:07.598Z,437
2022-10-11T06:03:07.683Z,433
2022-10-11T06:04:08.075Z,425
2022-10-11T06:05:09.022Z,413
2022-10-11T06:06:07.931Z,430
2022-10-11T06:07:07.956Z,427
2022-10-11T06:08:08.295Z,422
2022-10-11T06:09:08.088Z,415
2022-10-11T06:10:08.256Z,420
2022-10-11T06:12:07.921Z,422
2022-10-11T06:13:08.190Z,425
2022-10-11T06:14:07.524Z,420
2022-10-11T06:15:08.009Z,423
2022-10-11T06:16:08.796Z,425
2022-10-11T06:17:08.196Z,420
2022-10-11T06:18:08.499Z,421
2022-10-11T06:19:07.387Z,413
2022-10-11T06:20:08.512Z,409
2022-10-11T06:21:07.769Z,407
2022-10-11T06:22:07.651Z,410
2022-10-11T06:23:07.911Z,406
2022-10-11T06:24:07.908Z,403
2022-10-11T06:25:08.023Z,410
2022-10-11T06:26:08.908Z,401
2022-10-11T06:28:08.608Z,399
2022-10-11T06:29:07.967Z,405
2022-10-11T06:31:07.687Z,406
2022-10-11T06:32:07.610Z,405
2022-10-11T06:34:07.901Z,410
2022-10-11T06:35:07.960Z,418
2022-10-11T06:36:08.259Z,409
2022-10-11T06:37:08.032Z,404
2022-10-11T06:38:08.070Z,399
2022-10-11T06:39:08.118Z,409
2022-10-11T06:40:08.622Z,414
2022-10-11T06:41:07.896Z,418
2022-10-11T06:43:07.646Z,409
2022-10-11T06:44:11.921Z,406
2022-10-11T06:45:08.603Z,402
2022-10-11T06:46:08.316Z,388
2022-10-11T06:47:07.550Z,422
2022-10-11T06:48:07.676Z,424
2022-10-11T06:49:07.902Z,404
2022-10-11T06:50:07.883Z,407
2022-10-11T06:51:08.069Z,409
2022-10-11T06:52:08.514Z,418
2022-10-11T06:53:07.236Z,429
2022-10-11T06:54:08.401Z,417
2022-10-11T06:55:07.879Z,415
2022-10-11T06:56:08.708Z,427
2022-10-11T06:57:08.577Z,421
2022-10-11T06:58:07.993Z,418
2022-10-11T06:59:08.543Z,424
2022-10-11T07:00:12.503Z,426
2022-10-11T07:01:08.335Z,423
2022-10-11T07:02:07.938Z,407
2022-10-11T07:03:07.807Z,402
2022-10-11T07:04:08.155Z,407
2022-10-11T07:05:08.589Z,416
2022-10-11T07:06:08.432Z,418
2022-10-11T07:07:08.183Z,422
2022-10-11T07:08:08.437Z,411
2022-10-11T07:09:07.612Z,414
2022-10-11T07:10:07.524Z,407
2022-10-11T07:12:07.653Z,408
2022-10-11T07:13:08.011Z,416
2022-10-11T07:14:07.739Z,426
2022-10-11T07:15:07.953Z,419
2022-10-11T07:16:08.242Z,418
2022-10-11T07:17:07.763Z,421
2022-10-11T07:18:08.009Z,430
2022-10-11T07:19:07.965Z,419
2022-10-11T07:20:08.465Z,422
2022-10-11T07:21:07.685Z,424
2022-10-11T07:22:07.611Z,412
2022-10-11T07:23:07.607Z,413
2022-10-11T07:24:07.725Z,406
2022-10-11T07:25:08.037Z,399
2022-10-11T07:26:09.242Z,411
2022-10-11T07:27:07.977Z,420
2022-10-11T07:28:08.476Z,427
2022-10-11T07:29:07.783Z,409
2022-10-11T07:30:08.097Z,427
2022-10-11T07:31:08.007Z,417
2022-10-11T07:32:07.975Z,396
2022-10-11T07:33:08.342Z,401
2022-10-11T07:34:07.594Z,408
2022-10-11T07:35:07.882Z,403
2022-10-11T07:36:08.340Z,411
2022-10-11T07:37:07.706Z,412
2022-10-11T07:38:07.367Z,408
2022-10-11T07:39:08.611Z,407
2022-10-11T07:40:07.745Z,402
2022-10-11T07:41:07.608Z,405
2022-10-11T07:42:07.700Z,407
2022-10-11T07:43:07.530Z,410
2022-10-11T07:44:07.508Z,403
2022-10-11T07:45:08.593Z,401
2022-10-11T07:48:07.699Z,394
2022-10-11T07:49:07.773Z,392
2022-10-11T07:50:08.008Z,389
2022-10-11T07:51:08.492Z,397
2022-10-11T07:52:07.379Z,384
2022-10-11T07:53:08.241Z,386
2022-10-11T07:54:08.278Z,379
2022-10-11T07:55:08.519Z,378
2022-10-11T07:56:08.137Z,381
2022-10-11T07:57:07.803Z,385
2022-10-11T07:58:07.804Z,381
2022-10-11T07:59:07.674Z,384
2022-10-11T08:00:08.183Z,374
2022-10-11T08:01:08.394Z,372
2022-10-11T08:02:07.563Z,367
2022-10-11T08:03:07.871Z,373
2022-10-11T08:05:08.005Z,367
2022-10-11T08:06:08.315Z,371
2022-10-11T08:07:07.940Z,376
2022-10-11T08:08:08.283Z,380
2022-10-11T08:09:08.784Z,379
2022-10-11T08:10:07.852Z,373
2022-10-11T08:11:07.992Z,369
2022-10-11T08:12:08.070Z,348
2022-10-11T08:13:07.836Z,368
2022-10-11T08:14:15.845Z,360
2022-10-11T08:15:08.255Z,358
2022-10-11T08:16:07.773Z,369
2022-10-11T08:17:08.299Z,365
2022-10-11T08:18:07.499Z,374
2022-10-11T08:19:08.531Z,384
2022-10-11T08:20:07.746Z,376
2022-10-11T08:21:08.103Z,373
2022-10-11T08:22:08.004Z,366
2022-10-11T08:23:07.912Z,368
2022-10-11T08:24:08.113Z,374
2022-10-11T08:25:08.259Z,377
2022-10-11T08:26:22.277Z,371
2022-10-11T08:27:07.372Z,370
2022-10-11T08:28:07.923Z,371
2022-10-11T08:30:08.873Z,363
2022-10-11T08:31:08.384Z,356
2022-10-11T08:32:07.910Z,364
2022-10-11T08:33:08.780Z,369
2022-10-11T08:34:08.224Z,363
2022-10-11T08:35:08.407Z,371
2022-10-11T08:36:08.168Z,373
2022-10-11T08:37:08.073Z,374
2022-10-11T08:38:08.151Z,368
2022-10-11T08:39:08.288Z,370
2022-10-11T08:40:08.177Z,367
2022-10-11T08:41:08.412Z,369
2022-10-11T08:42:07.628Z,370
2022-10-11T08:44:07.834Z,372
2022-10-11T08:45:11.901Z,378
2022-10-11T08:46:08.292Z,380
2022-10-11T08:47:08.166Z,382
2022-10-11T08:48:08.178Z,367
2022-10-11T08:49:08.178Z,372
2022-10-11T08:50:08.511Z,377
2022-10-11T08:51:08.279Z,388
2022-10-11T08:52:08.432Z,383
2022-10-11T08:53:07.764Z,380
2022-10-11T08:54:08.224Z,379
2022-10-11T08:55:07.577Z,377
2022-10-11T08:56:08.146Z,379
2022-10-11T08:57:07.484Z,378
2022-10-11T08:58:08.598Z,374
2022-10-11T08:59:08.551Z,368
2022-10-11T09:00:08.244Z,371
2022-10-11T09:01:07.960Z,370
2022-10-11T09:02:08.065Z,367
2022-10-11T09:03:09.305Z,383
2022-10-11T09:05:07.913Z,387
2022-10-11T09:07:07.972Z,378
2022-10-11T09:08:07.879Z,372
2022-10-11T09:09:08.140Z,363
2022-10-11T09:10:08.277Z,380
2022-10-11T09:11:08.421Z,376
2022-10-11T09:13:07.913Z,361
2022-10-11T09:14:07.800Z,365
2022-10-11T09:15:07.970Z,370
2022-10-11T09:16:08.157Z,374
2022-10-11T09:17:07.490Z,380
2022-10-11T09:18:07.574Z,373
2022-10-11T09:19:07.808Z,370
2022-10-11T09:20:07.899Z,373
2022-10-11T09:21:08.019Z,369
2022-10-11T09:22:07.774Z,368
2022-10-11T09:24:07.621Z,365
2022-10-11T09:25:07.963Z,380
2022-10-11T09:26:08.660Z,369
2022-10-11T09:27:08.415Z,362
2022-10-11T09:29:08.086Z,388
2022-10-11T09:30:08.582Z,374
2022-10-11T09:31:08.150Z,376
2022-10-11T09:32:08.285Z,364
2022-10-11T09:33:08.385Z,358
2022-10-11T09:35:07.967Z,363
2022-10-11T09:36:08.204Z,349
2022-10-11T09:37:07.677Z,362
2022-10-11T09:38:07.860Z,356
2022-10-11T09:39:07.968Z,363
2022-10-11T09:40:08.098Z,365
2022-10-11T09:42:08.270Z,363
2022-10-11T09:43:08.155Z,376
2022-10-11T09:44:08.091Z,365
2022-10-11T09:46:07.999Z,373
2022-10-11T09:47:08.142Z,371
2022-10-11T09:48:08.093Z,360
2022-10-11T09:49:08.068Z,405
2022-10-11T09:50:08.056Z,391
2022-10-11T09:51:08.218Z,367
2022-10-11T09:52:08.109Z,363
2022-10-11T09:53:08.270Z,371
2022-10-11T09:54:08.605Z,367
2022-10-11T09:55:08.133Z,358
2022-10-11T09:56:09.053Z,364
2022-10-11T09:57:07.836Z,368
2022-10-11T09:58:07.938Z,372
2022-10-11T09:59:08.035Z,371
2022-10-11T10:00:08.796Z,365
2022-10-11T10:01:08.552Z,366
2022-10-11T10:03:07.805Z,372
2022-10-11T10:04:07.678Z,360
2022-10-11T10:05:07.561Z,351
2022-10-11T10:06:08.255Z,359
2022-10-11T10:07:07.522Z,360
2022-10-11T10:08:07.996Z,399
2022-10-11T10:09:08.438Z,373
2022-10-11T10:11:07.659Z,370
2022-10-11T10:12:07.810Z,366
2022-10-11T10:13:07.635Z,364
2022-10-11T10:14:07.543Z,354
2022-10-11T10:15:07.852Z,359
2022-10-11T10:16:08.660Z,372
2022-10-11T10:17:07.798Z,377
2022-10-11T10:18:08.144Z,372
2022-10-11T10:19:07.953Z,366
2022-10-11T10:20:07.978Z,357
2022-10-11T10:21:07.771Z,351
2022-10-11T10:22:07.614Z,345
2022-10-11T10:23:07.395Z,350
2022-10-11T10:24:07.470Z,344
2022-10-11T10:25:07.707Z,354
2022-10-11T10:26:08.455Z,367
2022-10-11T10:27:07.768Z,347
2022-10-11T10:28:07.631Z,352
2022-10-11T10:29:07.830Z,358
2022-10-11T10:30:08.475Z,368
2022-10-11T10:31:07.842Z,357
2022-10-11T10:32:14.922Z,352
2022-10-11T10:33:07.903Z,353
2022-10-11T10:34:07.619Z,362
2022-10-11T10:35:07.530Z,357
2022-10-11T10:36:08.323Z,361
2022-10-11T10:37:07.911Z,366
2022-10-11T10:38:08.178Z,363
2022-10-11T10:39:07.932Z,360
2022-10-11T10:40:08.337Z,355
2022-10-11T10:43:07.559Z,349
2022-10-11T10:44:07.697Z,341
2022-10-11T10:45:11.884Z,378
2022-10-11T10:46:08.466Z,333
2022-10-11T10:47:07.856Z,338
2022-10-11T10:48:07.574Z,344
2022-10-11T10:50:08.150Z,346
2022-10-11T10:51:10.460Z,345
2022-10-11T10:52:08.187Z,351
2022-10-11T10:53:08.461Z,356
2022-10-11T10:54:07.792Z,345
2022-10-11T10:55:07.722Z,355
2022-10-11T10:56:08.075Z,364
2022-10-11T10:57:07.620Z,361
2022-10-11T10:58:07.651Z,349
2022-10-11T10:59:07.869Z,351
2022-10-11T11:00:08.685Z,349
2022-10-11T11:01:07.740Z,355
2022-10-11T11:02:34.991Z,365
2022-10-11T11:03:07.959Z,358
2022-10-11T11:04:08.052Z,352
2022-10-11T11:05:26.782Z,342
2022-10-11T11:06:08.031Z,336
2022-10-11T11:07:07.648Z,338
2022-10-11T11:08:07.547Z,339
2022-10-11T11:09:07.682Z,344
2022-10-11T11:10:07.717Z,340
2022-10-11T11:11:07.682Z,343
2022-10-11T11:13:08.406Z,339
2022-10-11T11:14:07.387Z,348
2022-10-11T11:15:07.986Z,344
2022-10-11T11:17:30.032Z,337
2022-10-11T11:18:08.133Z,346
2022-10-11T11:19:07.819Z,345
2022-10-11T11:20:07.720Z,350
2022-10-11T11:21:07.731Z,351
2022-10-11T11:22:07.526Z,336
2022-10-11T11:24:07.665Z,343
2022-10-11T11:25:07.827Z,348
2022-10-11T11:27:07.866Z,351
2022-10-11T11:28:07.855Z,345
2022-10-11T11:29:07.843Z,349
2022-10-11T11:31:08.053Z,352
2022-10-11T11:32:07.590Z,357
2022-10-11T11:33:07.468Z,361
2022-10-11T11:34:07.410Z,362
2022-10-11T11:35:07.670Z,354
2022-10-11T11:36:07.947Z,361
2022-10-11T11:37:08.115Z,363
2022-10-11T11:38:08.002Z,355
2022-10-11T11:39:08.113Z,351
2022-10-11T11:40:08.250Z,342
2022-10-11T11:41:08.059Z,344
2022-10-11T11:42:07.612Z,345
2022-10-11T11:43:07.749Z,357
2022-10-11T11:44:07.714Z,360
2022-10-11T11:45:07.821Z,344
2022-10-11T11:46:07.937Z,349
2022-10-11T11:47:07.944Z,350
2022-10-11T11:48:08.002Z,349
2022-10-11T11:50:08.324Z,344
2022-10-11T11:51:08.247Z,337
2022-10-11T11:52:07.730Z,346
2022-10-11T11:53:07.579Z,341
2022-10-11T11:54:07.582Z,339
2022-10-11T11:55:07.847Z,348
2022-10-11T11:56:07.985Z,343
2022-10-11T11:57:07.645Z,337
2022-10-11T11:58:07.509Z,352
2022-10-11T11:59:07.436Z,353
2022-10-11T12:00:08.766Z,358
2022-10-11T12:01:08.702Z,356
2022-10-11T12:02:08.178Z,347
2022-10-11T12:03:07.678Z,340
2022-10-11T12:04:07.780Z,339
2022-10-11T12:05:07.943Z,341
2022-10-11T12:06:07.970Z,342
2022-10-11T12:07:15.983Z,344
2022-10-11T12:08:07.909Z,332
2022-10-11T12:09:08.153Z,340
2022-10-11T12:10:08.151Z,345
2022-10-11T12:11:08.562Z,351
2022-10-11T12:12:07.661Z,347
2022-10-11T12:13:07.550Z,356
2022-10-11T12:14:07.482Z,354
2022-10-11T12:15:07.646Z,347
2022-10-11T12:16:07.869Z,340
2022-10-11T12:17:07.841Z,332
2022-10-11T12:18:07.869Z,341
2022-10-11T12:19:07.870Z,353
2022-10-11T12:20:07.693Z,347
2022-10-11T12:21:07.724Z,356
2022-10-11T12:22:07.864Z,339
2022-10-11T12:23:07.822Z,342
2022-10-11T12:24:08.025Z,354
2022-10-11T12:26:07.582Z,348
2022-10-11T12:28:07.737Z,350
2022-10-11T12:29:07.770Z,341
2022-10-11T12:30:08.409Z,342
2022-10-11T12:31:08.115Z,341
2022-10-11T12:32:08.155Z,335
2022-10-11T12:33:08.166Z,340
2022-10-11T12:34:07.982Z,338
2022-10-11T12:35:07.850Z,333
2022-10-11T12:36:08.552Z,338
2022-10-11T12:37:07.967Z,345
2022-10-11T12:38:07.961Z,355
2022-10-11T12:39:07.798Z,338
2022-10-11T12:40:07.531Z,344
2022-10-11T12:41:07.557Z,340
2022-10-11T12:42:07.384Z,329
2022-10-11T12:43:07.443Z,336
2022-10-11T12:44:07.657Z,338
2022-10-11T12:45:08.028Z,343
2022-10-11T12:46:08.169Z,349
2022-10-11T12:47:07.507Z,337
2022-10-11T12:48:07.343Z,328
2022-10-11T12:49:08.218Z,337
2022-10-11T12:50:08.033Z,342
2022-10-11T12:51:08.027Z,338
2022-10-11T12:52:08.063Z,337
2022-10-11T12:53:07.917Z,333
2022-10-11T12:54:26.745Z,332
2022-10-11T12:55:08.266Z,335
2022-10-11T12:56:08.948Z,333
2022-10-11T12:57:11.896Z,331
2022-10-11T12:58:07.768Z,327
2022-10-11T12:59:07.668Z,335
2022-10-11T13:00:13.030Z,353
2022-10-11T13:01:07.801Z,350
2022-10-11T13:02:12.658Z,348
2022-10-11T13:03:07.769Z,341
2022-10-11T13:05:07.414Z,342
2022-10-11T13:06:15.650Z,344
2022-10-11T13:07:07.832Z,345
2022-10-11T13:08:07.700Z,341
2022-10-11T13:09:07.798Z,340
2022-10-11T13:10:07.992Z,343
2022-10-11T13:11:07.798Z,355
2022-10-11T13:12:07.717Z,364
2022-10-11T13:13:07.946Z,358
2022-10-11T13:14:08.005Z,345
2022-10-11T13:15:08.103Z,348
2022-10-11T13:16:22.523Z,345
2022-10-11T13:17:07.796Z,342
2022-10-11T13:18:07.805Z,349
2022-10-11T13:19:07.779Z,352
2022-10-11T13:20:22.152Z,355
2022-10-11T13:21:08.613Z,351
2022-10-11T13:22:21.983Z,346
2022-10-11T13:23:07.591Z,330
2022-10-11T13:24:07.662Z,381
2022-10-11T13:25:07.620Z,360
2022-10-11T13:26:07.441Z,347
2022-10-11T13:27:07.858Z,335
2022-10-11T13:28:08.064Z,328
2022-10-11T13:29:08.081Z,341
2022-10-11T13:31:08.189Z,337
2022-10-11T13:32:08.064Z,342
2022-10-11T13:33:08.502Z,343
2022-10-11T13:34:07.429Z,338
2022-10-11T13:35:08.625Z,346
2022-10-11T13:36:08.505Z,344
2022-10-11T13:37:07.781Z,342
2022-10-11T13:38:29.794Z,344
2022-10-11T13:39:08.298Z,347
2022-10-11T13:40:08.527Z,343
2022-10-11T13:41:07.707Z,331
2022-10-11T13:42:08.398Z,367
2022-10-11T13:43:08.491Z,338
2022-10-11T13:44:07.777Z,333
2022-10-11T13:45:08.043Z,346
2022-10-11T13:47:08.071Z,341
2022-10-11T13:48:08.110Z,337
2022-10-11T13:49:07.965Z,335
2022-10-11T13:50:07.960Z,338
2022-10-11T13:51:07.935Z,345
2022-10-11T13:52:07.864Z,343
2022-10-11T13:53:07.626Z,346
2022-10-11T13:54:10.488Z,347
2022-10-11T13:57:07.614Z,340
2022-10-11T13:58:07.473Z,332
2022-10-11T14:00:08.109Z,344
2022-10-11T14:01:07.954Z,342
2022-10-11T14:02:08.180Z,350
2022-10-11T14:03:08.390Z,348
2022-10-11T14:04:07.983Z,337
2022-10-11T14:05:07.996Z,335
2022-10-11T14:06:08.480Z,340
2022-10-11T14:07:07.798Z,337
2022-10-11T14:08:07.536Z,349
2022-10-11T14:09:07.813Z,351
2022-10-11T14:10:08.024Z,348
2022-10-11T14:11:08.123Z,341
2022-10-11T14:12:08.287Z,342
2022-10-11T14:13:08.777Z,349
2022-10-11T14:14:08.232Z,351
2022-10-11T14:15:08.242Z,353
2022-10-11T14:16:08.162Z,344
2022-10-11T14:17:08.297Z,350
2022-10-11T14:18:07.656Z,351
2022-10-11T14:19:07.852Z,342
2022-10-11T14:20:11.141Z,341
2022-10-11T14:21:08.531Z,328
2022-10-11T14:22:07.780Z,335
2022-10-11T14:23:07.667Z,336
2022-10-11T14:24:07.507Z,344
2022-10-11T14:25:07.854Z,341
2022-10-11T14:26:08.386Z,338
2022-10-11T14:27:08.139Z,347
2022-10-11T14:28:07.898Z,343
2022-10-11T14:29:07.800Z,332
2022-10-11T14:30:26.205Z,335
2022-10-11T14:31:08.145Z,341
2022-10-11T14:32:08.347Z,337
2022-10-11T14:33:07.693Z,348
2022-10-11T14:34:07.490Z,351
2022-10-11T14:35:07.802Z,343
2022-10-11T14:36:08.279Z,354
2022-10-11T14:37:07.881Z,356
2022-10-11T14:38:08.018Z,346
2022-10-11T14:39:08.320Z,348
2022-10-11T14:40:08.359Z,352
2022-10-11T14:42:07.247Z,332
2022-10-11T14:43:07.766Z,336
2022-10-11T14:44:07.889Z,346
2022-10-11T14:45:08.183Z,338
2022-10-11T14:46:08.711Z,335
2022-10-11T14:48:08.253Z,338
2022-10-11T14:49:08.337Z,343
2022-10-11T14:50:08.620Z,355
2022-10-11T14:51:08.140Z,353